Time;durP1;ratioP1;P1;durP2;ratioP2;P2;SDS_P1;SDS_P2;PMS_P1;PMS_P2;Temp;Humidity;BMP_temperature;BMP_pressure;BME280_temperature;BME280_humidity;BME280_pressure;Samples;Min_cycle;Max_cycle;Signal;HPM_P1;HPM_P2
2022/05/27 00:01:39;;;;;;;6.20;2.25;;;13.80;99.90;;;;;;4899872;29;20393;-86
2022/05/27 00:04:05;;;;;;;5.40;2.40;;;13.80;99.90;;;;;;4899109;29;20044;-86
2022/05/27 00:06:31;;;;;;;5.15;2.08;;;13.80;99.90;;;;;;4899445;29;20037;-86
2022/05/27 00:08:57;;;;;;;6.40;1.92;;;13.90;99.90;;;;;;4886833;29;20036;-86
2022/05/27 00:11:24;;;;;;;6.32;2.20;;;13.90;99.90;;;;;;4894417;29;20059;-86
2022/05/27 00:13:51;;;;;;;5.63;2.20;;;13.80;99.90;;;;;;4891374;29;20052;-87
2022/05/27 00:16:17;;;;;;;5.57;2.30;;;13.80;99.90;;;;;;4906381;29;20039;-87
2022/05/27 00:18:43;;;;;;;5.07;2.10;;;13.80;99.90;;;;;;4903942;29;20417;-87
2022/05/27 00:21:10;;;;;;;4.68;2.28;;;13.80;99.90;;;;;;4903568;29;20032;-87
2022/05/27 00:23:39;;;;;;;9.52;2.85;;;13.80;99.90;;;;;;4904471;29;20051;-86
2022/05/27 00:26:05;;;;;;;8.85;2.30;;;13.90;99.90;;;;;;4886905;29;20119;-87
2022/05/27 00:28:31;;;;;;;6.40;2.47;;;13.90;99.90;;;;;;4883295;29;20044;-87
2022/05/27 00:30:56;;;;;;;6.30;2.20;;;13.90;99.90;;;;;;4867279;29;20040;-87
2022/05/27 00:33:23;;;;;;;8.68;2.50;;;13.90;99.90;;;;;;4886327;29;20040;-87
2022/05/27 00:35:49;;;;;;;11.32;2.72;;;13.90;99.90;;;;;;4889081;29;20067;-87
2022/05/27 00:38:15;;;;;;;6.05;2.47;;;13.90;99.90;;;;;;4891966;29;20074;-87
2022/05/27 00:40:47;;;;;;;6.18;2.50;;;13.90;99.90;;;;;;4916820;29;20047;-86
2022/05/27 00:43:14;;;;;;;6.03;2.60;;;13.90;99.90;;;;;;4891867;29;20048;-87
2022/05/27 00:45:43;;;;;;;11.00;3.20;;;13.90;99.90;;;;;;4881152;29;20047;-87
2022/05/27 00:48:15;;;;;;;7.65;2.58;;;13.90;99.90;;;;;;4883778;29;20048;-86
2022/05/27 00:50:44;;;;;;;10.20;2.85;;;13.90;99.90;;;;;;4884861;29;20442;-87
2022/05/27 00:53:13;;;;;;;7.53;2.92;;;13.90;99.90;;;;;;4867863;29;20561;-87
2022/05/27 00:55:46;;;;;;;7.10;2.70;;;13.90;99.90;;;;;;4882625;29;20139;-87
2022/05/27 00:58:17;;;;;;;9.25;3.50;;;13.90;99.90;;;;;;4874158;29;20044;-86
2022/05/27 01:00:43;;;;;;;7.22;2.90;;;13.90;99.90;;;;;;4879185;29;20073;-87
2022/05/27 01:03:12;;;;;;;9.48;3.03;;;13.90;99.90;;;;;;4865747;29;20108;-86
2022/05/27 01:05:41;;;;;;;9.18;3.35;;;13.90;99.90;;;;;;4881085;29;20029;-87
2022/05/27 01:08:08;;;;;;;10.27;3.13;;;13.90;99.90;;;;;;4876593;29;20063;-86
2022/05/27 01:10:47;;;;;;;9.25;3.33;;;13.90;99.90;;;;;;4878892;29;20069;-86
2022/05/27 01:13:32;;;;;;;11.20;3.85;;;13.90;99.90;;;;;;4865276;29;20067;-86
2022/05/27 01:16:04;;;;;;;9.68;3.20;;;13.90;99.90;;;;;;4865787;29;20053;-88
2022/05/27 01:22:27;;;;;;;11.65;3.47;;;13.90;99.90;;;;;;4882184;29;20084;-87
2022/05/27 01:25:21;;;;;;;7.55;2.88;;;13.90;99.90;;;;;;4860283;29;20049;-87
2022/05/27 01:27:59;;;;;;;9.80;3.22;;;13.90;99.90;;;;;;4865591;29;20389;-86
2022/05/27 01:30:34;;;;;;;13.23;3.70;;;13.90;99.90;;;;;;4874574;29;20549;-86
2022/05/27 01:33:21;;;;;;;10.50;3.40;;;13.90;99.90;;;;;;4866646;29;20133;-87
2022/05/27 01:36:02;;;;;;;12.18;3.10;;;13.80;99.90;;;;;;4881950;29;20036;-86
2022/05/27 01:38:33;;;;;;;12.32;3.08;;;13.80;99.90;;;;;;4875732;29;20040;-87
2022/05/27 01:41:18;;;;;;;12.35;3.47;;;13.80;99.90;;;;;;4861352;29;20052;-87
2022/05/27 01:43:59;;;;;;;14.85;3.47;;;13.80;99.90;;;;;;4887100;29;20040;-86
2022/05/27 01:46:42;;;;;;;10.90;3.67;;;13.80;99.90;;;;;;4856762;29;20037;-87
2022/05/27 01:49:29;;;;;;;11.27;3.03;;;13.70;99.90;;;;;;4868237;29;20067;-87
2022/05/27 01:52:34;;;;;;;13.55;3.40;;;13.70;99.90;;;;;;4882135;29;20048;-87
2022/05/27 01:55:09;;;;;;;12.27;3.28;;;13.70;99.90;;;;;;4897670;29;20489;-87
2022/05/27 01:57:46;;;;;;;8.93;2.65;;;13.60;99.90;;;;;;4873583;29;20048;-87
2022/05/27 02:00:18;;;;;;;10.48;2.88;;;13.60;99.90;;;;;;4884098;29;20075;-86
2022/05/27 02:02:59;;;;;;;13.52;3.83;;;13.60;99.90;;;;;;4904955;29;20051;-87
2022/05/27 02:05:27;;;;;;;10.73;2.80;;;13.50;99.90;;;;;;4902470;29;20072;-87
2022/05/27 02:07:55;;;;;;;15.10;3.08;;;13.60;99.90;;;;;;4888092;29;20052;-87
2022/05/27 02:10:30;;;;;;;12.45;2.65;;;13.50;99.90;;;;;;4891937;29;20108;-87
2022/05/27 02:13:08;;;;;;;12.80;3.03;;;13.50;99.90;;;;;;4900660;29;20052;-87
2022/05/27 02:15:40;;;;;;;13.60;3.05;;;13.40;99.90;;;;;;4893675;29;20072;-87
2022/05/27 02:18:29;;;;;;;12.25;3.05;;;13.40;99.90;;;;;;4899215;29;20048;-87
2022/05/27 02:21:12;;;;;;;10.25;2.88;;;13.40;99.90;;;;;;4884085;29;20048;-87
2022/05/27 02:23:44;;;;;;;13.57;3.17;;;13.40;99.90;;;;;;4897441;29;20048;-87
2022/05/27 02:26:18;;;;;;;13.82;2.90;;;13.30;99.90;;;;;;4880735;29;20044;-87
2022/05/27 02:28:49;;;;;;;10.85;3.10;;;13.30;99.90;;;;;;4886390;29;20036;-87
2022/05/27 02:31:19;;;;;;;11.52;3.47;;;13.30;99.90;;;;;;4902462;29;20040;-87
2022/05/27 02:36:39;;;;;;;15.93;3.05;;;13.30;99.90;;;;;;4901899;29;20059;-87
2022/05/27 02:39:07;;;;;;;13.20;3.03;;;13.30;99.90;;;;;;4887212;29;20500;-87
2022/05/27 02:41:49;;;;;;;14.20;2.78;;;13.20;99.90;;;;;;4885518;29;20524;-86
2022/05/27 02:44:48;;;;;;;11.27;2.65;;;13.20;99.90;;;;;;4902498;29;20501;-87
2022/05/27 02:47:36;;;;;;;13.75;3.00;;;13.20;99.90;;;;;;4879615;29;20058;-87
2022/05/27 02:50:23;;;;;;;14.32;2.90;;;13.20;99.90;;;;;;4873075;29;20044;-87
2022/05/27 02:52:49;;;;;;;12.25;2.80;;;13.20;99.90;;;;;;4887271;29;20120;-87
2022/05/27 02:55:23;;;;;;;17.02;3.05;;;13.20;99.90;;;;;;4873431;29;20481;-87
2022/05/27 02:57:52;;;;;;;15.57;3.08;;;13.20;99.90;;;;;;4867300;29;20044;-87
2022/05/27 03:00:21;;;;;;;10.95;2.72;;;13.20;99.90;;;;;;4870695;29;20100;-86
2022/05/27 03:02:48;;;;;;;13.70;2.60;;;13.20;99.90;;;;;;4872120;29;20055;-87
2022/05/27 03:05:18;;;;;;;13.75;2.65;;;13.10;99.90;;;;;;4868827;29;20048;-87
2022/05/27 03:08:12;;;;;;;11.40;2.47;;;13.20;99.90;;;;;;4898238;29;20044;-87
2022/05/27 03:11:00;;;;;;;16.50;2.85;;;13.20;99.90;;;;;;4899414;29;20049;-87
2022/05/27 03:14:04;;;;;;;11.30;2.80;;;13.20;99.90;;;;;;4897727;29;20048;-86
2022/05/27 03:17:14;;;;;;;12.23;2.58;;;13.20;99.90;;;;;;4884453;29;20069;-87
2022/05/27 03:20:17;;;;;;;15.25;2.45;;;13.20;99.90;;;;;;4882207;29;20056;-87
2022/05/27 03:23:13;;;;;;;11.90;2.65;;;13.10;99.90;;;;;;4884982;29;20044;-87
2022/05/27 03:25:54;;;;;;;16.25;2.50;;;13.10;99.90;;;;;;4864387;29;20036;-86
2022/05/27 03:28:33;;;;;;;15.55;3.05;;;13.10;99.90;;;;;;4891166;29;20251;-87
2022/05/27 03:31:12;;;;;;;11.07;2.50;;;13.20;99.90;;;;;;4884336;29;20508;-86
2022/05/27 03:33:58;;;;;;;12.82;2.53;;;13.10;99.90;;;;;;4871358;29;20041;-86
2022/05/27 03:36:35;;;;;;;15.20;2.72;;;13.10;99.90;;;;;;4875408;29;20443;-86
2022/05/27 03:39:18;;;;;;;16.23;2.92;;;13.10;99.90;;;;;;4881401;29;20112;-87
2022/05/27 03:41:48;;;;;;;10.02;2.78;;;13.10;99.90;;;;;;4886213;29;20048;-86
2022/05/27 03:44:17;;;;;;;14.75;2.72;;;13.10;99.90;;;;;;4872720;29;20092;-87
2022/05/27 03:46:44;;;;;;;14.50;2.53;;;13.10;99.90;;;;;;4867478;29;20040;-88
2022/05/27 03:49:10;;;;;;;15.05;2.90;;;13.10;99.90;;;;;;4866538;29;20049;-87
2022/05/27 03:51:43;;;;;;;12.25;2.90;;;13.10;99.90;;;;;;4868723;29;20047;-86
2022/05/27 03:54:11;;;;;;;15.45;3.03;;;13.10;99.90;;;;;;4880109;29;20082;-87
2022/05/27 03:56:41;;;;;;;14.35;3.08;;;13.10;99.90;;;;;;4877033;29;20052;-86
2022/05/27 03:59:10;;;;;;;16.58;3.42;;;13.10;99.90;;;;;;4897098;29;20438;-86
2022/05/27 04:01:37;;;;;;;14.65;2.67;;;13.10;99.90;;;;;;4871589;29;20109;-87
2022/05/27 04:04:06;;;;;;;13.18;2.63;;;13.10;99.90;;;;;;4883000;29;20041;-88
2022/05/27 04:06:32;;;;;;;14.30;2.80;;;13.10;99.90;;;;;;4865842;29;20041;-87
2022/05/27 04:08:58;;;;;;;19.38;3.42;;;13.10;99.90;;;;;;4868937;29;20045;-86
2022/05/27 04:11:25;;;;;;;19.08;3.10;;;13.10;99.90;;;;;;4887599;29;20180;-86
2022/05/27 04:13:51;;;;;;;11.93;3.10;;;13.10;99.90;;;;;;4884451;29;20093;-87
2022/05/27 04:16:17;;;;;;;14.30;2.75;;;13.20;99.90;;;;;;4873078;29;20049;-87
2022/05/27 04:18:43;;;;;;;13.73;3.05;;;13.20;99.90;;;;;;4870507;29;20515;-87
2022/05/27 04:21:09;;;;;;;12.75;2.90;;;13.20;99.90;;;;;;4869926;29;20060;-87
2022/05/27 04:23:36;;;;;;;13.43;2.67;;;13.20;99.90;;;;;;4862111;29;20051;-87
2022/05/27 04:26:02;;;;;;;14.93;2.63;;;13.20;99.90;;;;;;4894597;29;20066;-87
2022/05/27 04:28:27;;;;;;;15.02;2.90;;;13.20;99.90;;;;;;4879470;29;20094;-87
2022/05/27 04:30:53;;;;;;;16.17;3.35;;;13.20;99.90;;;;;;4872658;29;20045;-87
2022/05/27 04:33:19;;;;;;;11.23;2.55;;;13.20;99.90;;;;;;4879522;29;20051;-87
2022/05/27 04:35:46;;;;;;;16.98;2.70;;;13.20;99.90;;;;;;4866617;29;20048;-87
2022/05/27 04:38:12;;;;;;;13.63;2.97;;;13.20;99.90;;;;;;4849225;29;20048;-87
2022/05/27 04:40:38;;;;;;;12.73;2.47;;;13.20;99.90;;;;;;4855730;29;20047;-87
2022/05/27 04:43:03;;;;;;;12.68;2.58;;;13.20;99.90;;;;;;4862556;29;20041;-88
2022/05/27 04:45:30;;;;;;;10.77;2.72;;;13.20;99.90;;;;;;4868035;29;20032;-87
2022/05/27 04:47:56;;;;;;;11.88;2.60;;;13.30;99.90;;;;;;4885939;29;20053;-87
2022/05/27 04:50:22;;;;;;;11.57;2.63;;;13.30;99.90;;;;;;4852547;29;20047;-87
2022/05/27 04:52:48;;;;;;;12.80;2.45;;;13.30;99.90;;;;;;4855540;29;20072;-88
2022/05/27 04:55:15;;;;;;;13.75;3.03;;;13.30;99.90;;;;;;4857078;29;20041;-88
2022/05/27 04:57:44;;;;;;;12.13;3.35;;;13.30;99.90;;;;;;4898488;29;20045;-87
2022/05/27 05:00:17;;;;;;;9.80;2.72;;;13.30;99.90;;;;;;4870915;29;20127;-87
2022/05/27 05:02:43;;;;;;;9.60;2.67;;;13.30;99.90;;;;;;4868015;29;20041;-87
2022/05/27 05:05:10;;;;;;;13.27;2.88;;;13.40;99.90;;;;;;4859597;29;20051;-87
2022/05/27 05:07:40;;;;;;;15.88;2.67;;;13.40;99.90;;;;;;4886346;29;20049;-88
2022/05/27 05:10:08;;;;;;;14.20;2.83;;;13.50;99.90;;;;;;4855711;29;20108;-87
2022/05/27 05:12:34;;;;;;;13.25;3.13;;;13.40;99.90;;;;;;4870704;29;20037;-88
2022/05/27 05:15:00;;;;;;;10.50;2.90;;;13.40;99.90;;;;;;4840780;29;20458;-88
2022/05/27 05:17:26;;;;;;;11.32;3.00;;;13.40;99.90;;;;;;4870739;29;20040;-87
2022/05/27 05:19:55;;;;;;;12.95;2.67;;;13.40;99.90;;;;;;4872162;29;20068;-88
2022/05/27 05:22:22;;;;;;;11.73;2.53;;;13.40;99.90;;;;;;4856380;29;20036;-88
2022/05/27 05:24:51;;;;;;;11.15;2.65;;;13.40;99.90;;;;;;4872464;29;20072;-88
2022/05/27 05:27:17;;;;;;;12.50;2.67;;;13.40;99.90;;;;;;4871860;29;20036;-88
2022/05/27 05:29:43;;;;;;;12.48;2.45;;;13.30;99.90;;;;;;4874218;29;20044;-87
2022/05/27 05:32:09;;;;;;;11.27;3.00;;;13.30;99.90;;;;;;4854669;29;20047;-88
2022/05/27 05:34:34;;;;;;;15.57;3.08;;;13.30;99.90;;;;;;4886574;29;20430;-88
2022/05/27 05:37:00;;;;;;;15.23;2.83;;;13.30;99.90;;;;;;4856029;29;20043;-89
2022/05/27 05:39:26;;;;;;;10.25;2.72;;;13.30;99.90;;;;;;4886812;29;20068;-87
2022/05/27 05:41:57;;;;;;;9.68;2.30;;;13.30;99.90;;;;;;4856557;29;20048;-88
2022/05/27 05:44:23;;;;;;;11.57;2.80;;;13.30;99.90;;;;;;4884661;29;20052;-88
2022/05/27 05:46:49;;;;;;;12.65;2.60;;;13.30;99.90;;;;;;4886404;29;20044;-89
2022/05/27 05:49:15;;;;;;;12.55;2.50;;;13.30;99.90;;;;;;4864072;29;20037;-89
2022/05/27 05:51:40;;;;;;;8.23;2.67;;;13.30;99.90;;;;;;4869649;29;20052;-88
2022/05/27 05:54:06;;;;;;;16.50;3.00;;;13.30;99.90;;;;;;4857634;29;20045;-89
2022/05/27 05:56:33;;;;;;;17.10;4.35;;;13.30;99.90;;;;;;4874943;29;20040;-88
2022/05/27 05:59:00;;;;;;;11.95;3.00;;;13.40;99.90;;;;;;4890597;29;20069;-88
2022/05/27 06:01:26;;;;;;;13.35;3.20;;;13.40;99.90;;;;;;4877027;29;20496;-89
2022/05/27 06:03:51;;;;;;;13.07;3.10;;;13.40;99.90;;;;;;4871326;29;20055;-88
2022/05/27 06:06:18;;;;;;;14.80;3.03;;;13.40;99.90;;;;;;4891867;29;20048;-88
2022/05/27 06:08:43;;;;;;;16.38;3.65;;;13.50;99.90;;;;;;4860095;29;20071;-88
2022/05/27 06:11:09;;;;;;;12.68;3.10;;;13.50;99.90;;;;;;4873863;29;20040;-89
2022/05/27 06:13:40;;;;;;;14.45;2.90;;;13.60;99.90;;;;;;4878434;29;20123;-89
2022/05/27 06:16:07;;;;;;;17.33;2.90;;;13.70;99.90;;;;;;4857412;29;20083;-88
2022/05/27 06:18:33;;;;;;;12.38;3.17;;;13.80;99.90;;;;;;4857379;29;20404;-89
2022/05/27 06:20:59;;;;;;;18.80;3.42;;;13.90;99.90;;;;;;4863720;29;20048;-88
2022/05/27 06:23:28;;;;;;;13.02;2.88;;;14.00;99.90;;;;;;4877248;29;20044;-89
2022/05/27 06:26:00;;;;;;;13.70;2.78;;;14.10;99.90;;;;;;4873401;29;20076;-88
2022/05/27 06:36:41;;;;;;;12.70;2.67;;;14.40;99.90;;;;;;4888232;29;20663;-88
2022/05/27 06:39:07;;;;;;;14.25;2.50;;;14.40;99.90;;;;;;4869895;29;20044;-88
2022/05/27 06:41:34;;;;;;;15.10;3.03;;;14.30;99.90;;;;;;4871904;29;20141;-88
2022/05/27 06:44:00;;;;;;;10.27;3.50;;;14.30;99.90;;;;;;4872411;29;20045;-89
2022/05/27 06:46:26;;;;;;;11.65;2.67;;;14.40;99.90;;;;;;4868861;29;20044;-85
2022/05/27 06:48:52;;;;;;;14.30;2.75;;;14.60;99.90;;;;;;4905851;29;20063;-89
2022/05/27 06:51:20;;;;;;;14.23;2.35;;;14.60;99.90;;;;;;4892850;29;20504;-90
2022/05/27 06:53:46;;;;;;;12.38;2.67;;;14.80;99.90;;;;;;4883612;29;20422;-87
2022/05/27 06:56:13;;;;;;;12.10;2.72;;;14.90;99.90;;;;;;4901930;29;20048;-87
2022/05/27 06:58:40;;;;;;;10.18;3.08;;;14.80;99.90;;;;;;4891256;29;20107;-88
2022/05/27 07:01:07;;;;;;;18.75;3.53;;;14.90;99.90;;;;;;4905056;29;20044;-89
2022/05/27 07:03:34;;;;;;;10.48;2.92;;;15.00;99.90;;;;;;4904650;29;20115;-87
2022/05/27 07:06:00;;;;;;;12.77;2.42;;;15.10;99.90;;;;;;4886669;29;20507;-88
2022/05/27 07:08:26;;;;;;;11.02;3.03;;;15.30;99.90;;;;;;4917351;29;20036;-88
2022/05/27 07:10:51;;;;;;;15.93;3.05;;;15.40;99.90;;;;;;4888602;29;20039;-89
2022/05/27 07:13:18;;;;;;;12.57;2.83;;;15.40;99.90;;;;;;4905272;29;20044;-87
2022/05/27 07:15:44;;;;;;;13.13;2.60;;;15.50;99.90;;;;;;4887780;29;20048;-88
2022/05/27 07:18:11;;;;;;;10.50;3.00;;;15.60;99.90;;;;;;4893690;29;20485;-88
2022/05/27 07:20:38;;;;;;;11.25;2.83;;;15.60;99.90;;;;;;4906982;29;20075;-88
2022/05/27 07:23:04;;;;;;;16.65;3.58;;;15.70;99.90;;;;;;4876008;29;20079;-88
2022/05/27 07:25:34;;;;;;;13.30;2.95;;;15.70;99.90;;;;;;4899392;29;20040;-87
2022/05/27 07:28:04;;;;;;;13.98;3.75;;;15.80;99.90;;;;;;4901418;29;20474;-87
2022/05/27 07:30:30;;;;;;;16.33;3.22;;;15.70;99.90;;;;;;4874528;29;20041;-88
2022/05/27 07:32:56;;;;;;;10.60;2.85;;;15.50;99.90;;;;;;4906540;29;20698;-88
2022/05/27 07:35:22;;;;;;;12.43;3.22;;;15.40;99.90;;;;;;4905503;29;20040;-88
2022/05/27 07:37:48;;;;;;;11.35;2.53;;;15.60;99.90;;;;;;4876849;29;20048;-88
2022/05/27 07:40:14;;;;;;;14.50;3.20;;;15.90;99.90;;;;;;4890104;29;20104;-88
2022/05/27 07:42:40;;;;;;;14.27;2.65;;;16.20;99.90;;;;;;4887488;29;20047;-87
2022/05/27 07:45:07;;;;;;;12.40;2.78;;;16.50;99.90;;;;;;4896096;29;20043;-88
2022/05/27 07:47:33;;;;;;;9.60;2.45;;;16.70;99.90;;;;;;4891902;29;20087;-87
2022/05/27 07:49:58;;;;;;;12.88;2.55;;;17.00;99.90;;;;;;4896536;29;20067;-88
2022/05/27 07:52:25;;;;;;;7.03;2.17;;;17.20;99.90;;;;;;4887903;29;20040;-87
2022/05/27 07:54:55;;;;;;;11.00;2.80;;;17.40;99.90;;;;;;4875590;29;20052;-86
2022/05/27 07:57:25;;;;;;;9.98;2.55;;;17.60;99.90;;;;;;4876658;29;20048;-88
2022/05/27 07:59:54;;;;;;;10.32;2.90;;;17.40;99.80;;;;;;4889045;29;20382;-88
2022/05/27 08:02:24;;;;;;;8.50;2.00;;;17.20;99.00;;;;;;4907949;29;20050;-87
2022/05/27 08:04:50;;;;;;;10.55;2.70;;;16.90;98.50;;;;;;4900037;29;20072;-88
2022/05/27 08:07:15;;;;;;;9.85;2.58;;;16.80;98.60;;;;;;4911741;29;20059;-87
2022/05/27 08:09:41;;;;;;;8.10;3.17;;;16.70;97.90;;;;;;4924998;29;20040;-86
2022/05/27 08:12:08;;;;;;;10.30;2.60;;;16.80;98.00;;;;;;4901171;29;20036;-86
2022/05/27 08:14:33;;;;;;;8.05;2.30;;;17.00;97.60;;;;;;4902456;29;20139;-87
2022/05/27 08:17:00;;;;;;;9.10;2.70;;;17.00;95.60;;;;;;4885710;29;20029;-88
2022/05/27 08:19:26;;;;;;;9.27;2.60;;;17.10;95.80;;;;;;4924803;29;20044;-88
2022/05/27 08:21:51;;;;;;;11.52;2.45;;;17.20;94.80;;;;;;4905694;29;20036;-87
2022/05/27 08:24:17;;;;;;;9.82;2.85;;;17.20;93.70;;;;;;4895531;29;20040;-89
2022/05/27 08:26:43;;;;;;;9.45;2.78;;;17.10;94.60;;;;;;4901079;29;20768;-88
2022/05/27 08:29:10;;;;;;;10.70;2.80;;;17.20;94.30;;;;;;4916350;29;20048;-89
2022/05/27 08:31:37;;;;;;;8.25;2.47;;;17.10;94.30;;;;;;4905896;29;20684;-88
2022/05/27 08:39:39;;;;;;;11.48;2.67;;;16.70;93.20;;;;;;4905886;29;20096;-88
2022/05/27 08:42:42;;;;;;;10.40;3.10;;;16.70;93.70;;;;;;4907088;29;20115;-89
2022/05/27 08:45:21;;;;;;;9.82;2.28;;;16.90;93.80;;;;;;4906342;29;20136;-88
2022/05/27 08:47:55;;;;;;;11.48;2.47;;;17.00;94.50;;;;;;4908661;29;20059;-89
2022/05/27 08:50:33;;;;;;;10.20;2.67;;;16.90;95.10;;;;;;4896524;29;20048;-89
2022/05/27 08:53:26;;;;;;;9.32;2.38;;;16.80;94.40;;;;;;4890860;29;20533;-89
2022/05/27 09:01:32;;;;;;;8.25;2.17;;;16.80;96.70;;;;;;4922132;29;20048;-88
2022/05/27 09:04:22;;;;;;;12.10;2.00;;;17.00;95.40;;;;;;4886788;29;20048;-89
2022/05/27 09:06:50;;;;;;;13.35;2.28;;;17.10;96.00;;;;;;4884278;29;20046;-88
2022/05/27 09:09:22;;;;;;;6.00;1.50;;;17.20;95.80;;;;;;4906368;29;20093;-89
2022/05/27 09:12:19;;;;;;;8.93;2.05;;;17.30;94.20;;;;;;4889040;29;20044;-88
2022/05/27 09:14:57;;;;;;;6.82;1.73;;;17.40;92.90;;;;;;4905223;29;20036;-88
2022/05/27 09:17:37;;;;;;;9.55;1.70;;;17.60;94.40;;;;;;4904474;29;20073;-88
2022/05/27 09:20:13;;;;;;;6.53;2.15;;;17.60;91.80;;;;;;4904712;29;20044;-89
2022/05/27 09:22:53;;;;;;;7.20;2.13;;;17.60;92.20;;;;;;4888141;29;20501;-89
2022/05/27 09:25:41;;;;;;;10.63;2.00;;;17.50;93.00;;;;;;4890922;29;20068;-89
2022/05/27 09:28:32;;;;;;;7.30;1.70;;;17.40;93.40;;;;;;4888237;29;20120;-89
2022/05/27 09:31:00;;;;;;;5.30;1.70;;;17.40;90.90;;;;;;4906176;29;20041;-89
2022/05/27 09:33:28;;;;;;;6.75;1.70;;;17.30;92.60;;;;;;4888224;29;20047;-89
2022/05/27 09:36:12;;;;;;;7.80;1.55;;;17.20;91.80;;;;;;4873889;29;20048;-89
2022/05/27 09:38:55;;;;;;;4.55;1.48;;;17.10;92.00;;;;;;4890185;29;20052;-87
2022/05/27 09:41:40;;;;;;;5.95;1.40;;;17.00;92.10;;;;;;4903389;29;20051;-91
2022/05/27 09:44:29;;;;;;;4.97;1.73;;;17.00;86.50;;;;;;4906972;29;20104;-90
2022/05/27 09:46:55;;;;;;;7.43;1.67;;;17.00;90.60;;;;;;4904498;29;20056;-90
2022/05/27 09:49:21;;;;;;;7.40;2.13;;;17.00;91.90;;;;;;4878852;29;20054;-90
2022/05/27 09:51:47;;;;;;;8.50;1.90;;;17.10;92.50;;;;;;4883199;29;20040;-90
2022/05/27 09:54:31;;;;;;;10.07;1.80;;;17.20;91.60;;;;;;4886593;29;20055;-89
2022/05/27 09:56:59;;;;;;;11.40;2.20;;;17.10;88.70;;;;;;4888347;29;20080;-89
2022/05/27 09:59:34;;;;;;;7.95;2.10;;;17.10;90.40;;;;;;4888754;29;20381;-90
2022/05/27 10:02:15;;;;;;;7.63;1.67;;;17.20;90.00;;;;;;4912953;29;20062;-90
2022/05/27 10:04:53;;;;;;;7.72;1.80;;;17.20;85.00;;;;;;4882699;29;20044;-89
2022/05/27 10:07:35;;;;;;;10.10;2.30;;;17.10;88.50;;;;;;4902555;29;20405;-89
2022/05/27 10:10:31;;;;;;;7.13;2.17;;;16.90;87.50;;;;;;4892293;29;20048;-85
2022/05/27 10:13:18;;;;;;;7.63;1.65;;;16.90;88.20;;;;;;4880900;29;20056;-89
2022/05/27 10:15:44;;;;;;;7.05;1.80;;;16.70;89.60;;;;;;4892943;29;20052;-88
2022/05/27 10:18:25;;;;;;;8.80;2.20;;;16.80;91.50;;;;;;4873088;29;20051;-88
2022/05/27 10:21:01;;;;;;;7.47;2.00;;;16.80;91.50;;;;;;4896284;29;20036;-87
2022/05/27 10:23:34;;;;;;;13.60;2.65;;;16.80;89.90;;;;;;4901459;29;20048;-88
2022/05/27 10:26:23;;;;;;;9.52;2.40;;;16.70;90.90;;;;;;4899855;29;20512;-88
2022/05/27 10:29:13;;;;;;;6.78;1.55;;;16.70;90.40;;;;;;4885335;29;20040;-89
2022/05/27 10:31:50;;;;;;;8.27;2.08;;;16.70;91.40;;;;;;4884887;29;20051;-87
2022/05/27 10:34:45;;;;;;;9.55;1.85;;;16.80;92.70;;;;;;4884464;29;20052;-87
2022/05/27 10:37:30;;;;;;;10.45;2.28;;;16.80;94.00;;;;;;4883337;29;20043;-90
2022/05/27 10:40:24;;;;;;;8.80;1.95;;;16.90;92.80;;;;;;4894220;29;20075;-88
2022/05/27 10:43:05;;;;;;;9.88;2.60;;;16.90;94.80;;;;;;4883075;29;20048;-87
2022/05/27 10:45:39;;;;;;;10.18;2.25;;;16.80;93.60;;;;;;4889238;29;20041;-89
2022/05/27 10:48:28;;;;;;;10.05;2.22;;;16.80;93.80;;;;;;4889302;29;20095;-89
2022/05/27 10:51:03;;;;;;;12.70;2.42;;;16.70;93.30;;;;;;4903321;29;20080;-90
2022/05/27 10:53:47;;;;;;;6.75;1.98;;;16.50;93.80;;;;;;4909016;29;20047;-89
2022/05/27 11:02:04;;;;;;;10.05;2.33;;;16.30;94.30;;;;;;4883709;29;20044;-88
2022/05/27 11:02:53;;;;;;;11.32;2.40;;;16.40;94.10;;;;;;4913991;29;20115;-90
2022/05/27 11:05:28;;;;;;;;;;;16.50;95.10;;;;;;4893432;29;20126;-89
2022/05/27 11:07:54;;;;;;;6.57;2.20;;;16.50;94.20;;;;;;4914117;29;20383;-88
2022/05/27 11:10:34;;;;;;;8.52;2.35;;;16.60;94.60;;;;;;4892750;29;20056;-88
2022/05/27 11:15:47;;;;;;;13.82;2.78;;;16.70;95.00;;;;;;4905821;29;20052;-88
2022/05/27 11:18:54;;;;;;;11.38;2.90;;;16.70;95.10;;;;;;4920679;29;20397;-88
2022/05/27 11:21:32;;;;;;;12.60;2.95;;;16.70;95.70;;;;;;4906707;29;20396;-88
2022/05/27 11:24:07;;;;;;;12.20;2.67;;;16.80;96.10;;;;;;4890827;29;20044;-88
2022/05/27 11:26:49;;;;;;;12.15;2.50;;;16.80;95.20;;;;;;4890393;29;20047;-88
2022/05/27 11:29:40;;;;;;;13.35;2.97;;;16.70;95.40;;;;;;4892064;29;20047;-88
2022/05/27 11:32:35;;;;;;;11.38;3.08;;;16.60;94.50;;;;;;4891808;29;20047;-89
2022/05/27 11:35:07;;;;;;;12.27;3.13;;;16.70;95.70;;;;;;4892290;29;20830;-87
2022/05/27 11:37:33;;;;;;;9.38;2.17;;;16.80;96.10;;;;;;4903549;29;20076;-89
2022/05/27 11:40:07;;;;;;;10.98;3.47;;;16.80;95.30;;;;;;4890070;29;20047;-89
2022/05/27 11:42:57;;;;;;;13.35;2.85;;;16.90;93.60;;;;;;4893571;29;20092;-89
2022/05/27 11:45:29;;;;;;;10.90;2.85;;;16.90;95.90;;;;;;4905304;29;20040;-88
2022/05/27 11:48:10;;;;;;;13.77;2.95;;;17.00;96.60;;;;;;4903258;29;20047;-88
2022/05/27 11:51:02;;;;;;;13.68;3.05;;;17.10;95.90;;;;;;4895237;29;20079;-89
2022/05/27 11:53:49;;;;;;;12.63;2.72;;;17.20;95.70;;;;;;4911640;29;20135;-89
2022/05/27 11:56:26;;;;;;;8.75;2.58;;;17.20;95.80;;;;;;4898976;29;20434;-88
2022/05/27 11:58:59;;;;;;;8.30;2.90;;;17.30;95.50;;;;;;4904043;29;20090;-89
2022/05/27 12:01:47;;;;;;;11.65;2.92;;;17.20;95.00;;;;;;4901279;29;20066;-88
2022/05/27 12:04:26;;;;;;;12.20;2.40;;;17.20;94.70;;;;;;4905624;29;20142;-90
2022/05/27 12:07:18;;;;;;;13.35;3.33;;;17.10;94.00;;;;;;4912849;29;20044;-89
2022/05/27 12:10:08;;;;;;;11.40;2.53;;;17.10;92.90;;;;;;4898502;29;20052;-89
2022/05/27 12:12:37;;;;;;;13.93;3.00;;;16.90;93.80;;;;;;4905148;29;20036;-89
2022/05/27 12:15:09;;;;;;;17.73;2.45;;;17.00;95.80;;;;;;4887871;29;20052;-89
2022/05/27 12:17:38;;;;;;;11.70;2.97;;;17.10;94.80;;;;;;4878247;29;20100;-87
2022/05/27 12:20:05;;;;;;;9.55;2.30;;;17.40;95.70;;;;;;4886201;29;20056;-89
2022/05/27 12:22:35;;;;;;;9.70;2.42;;;17.60;95.60;;;;;;4892330;29;20047;-89
2022/05/27 12:25:15;;;;;;;10.57;2.63;;;17.80;95.40;;;;;;4884097;29;20210;-90
2022/05/27 12:27:41;;;;;;;12.40;2.42;;;18.00;95.00;;;;;;4898203;29;20048;-89
2022/05/27 12:30:10;;;;;;;13.35;2.95;;;18.10;93.70;;;;;;4890198;29;20071;-90
2022/05/27 12:32:39;;;;;;;8.07;2.80;;;18.20;93.70;;;;;;4891973;29;20049;-88
2022/05/27 12:35:17;;;;;;;8.07;2.45;;;18.40;93.70;;;;;;4897360;29;20052;-91
2022/05/27 12:37:50;;;;;;;9.90;2.42;;;18.50;90.60;;;;;;4904462;29;20066;-90
2022/05/27 12:40:18;;;;;;;14.90;3.10;;;18.60;92.20;;;;;;4882845;29;20085;-89
2022/05/27 12:42:44;;;;;;;9.05;2.40;;;18.80;92.70;;;;;;4882357;29;20044;-89
2022/05/27 12:45:21;;;;;;;13.77;2.63;;;18.90;91.00;;;;;;4871940;29;20058;-89
2022/05/27 12:47:54;;;;;;;10.30;2.35;;;18.80;87.70;;;;;;4891499;29;20055;-89
2022/05/27 12:50:28;;;;;;;7.13;2.10;;;18.60;87.50;;;;;;4901690;29;20075;-88
2022/05/27 12:53:12;;;;;;;10.70;2.33;;;18.30;88.20;;;;;;4886869;29;20048;-88
2022/05/27 13:00:55;;;;;;;10.38;2.40;;;17.90;88.60;;;;;;4910037;29;20479;-89
2022/05/27 13:01:32;;;;;;;12.20;2.50;;;17.70;90.60;;;;;;4810738;29;20046;-90
2022/05/27 13:04:01;;;;;;;12.10;2.50;;;17.60;90.40;;;;;;4870542;29;20056;-88
2022/05/27 13:06:26;;;;;;;9.82;2.13;;;17.70;91.30;;;;;;4885615;29;20044;-89
2022/05/27 13:08:52;;;;;;;11.15;2.50;;;17.70;90.80;;;;;;4888846;29;20043;-90
2022/05/27 13:11:25;;;;;;;8.48;2.03;;;17.80;91.00;;;;;;4881860;29;20068;-87
2022/05/27 13:14:04;;;;;;;10.38;2.65;;;17.70;90.40;;;;;;4894350;29;20071;-90
2022/05/27 13:16:40;;;;;;;10.60;2.63;;;17.40;90.30;;;;;;4917482;29;20036;-88
2022/05/27 13:19:22;;;;;;;12.10;2.85;;;17.20;91.90;;;;;;4919964;29;20072;-89
2022/05/27 13:21:54;;;;;;;11.80;2.30;;;17.10;91.80;;;;;;4917192;29;20056;-88
2022/05/27 13:24:20;;;;;;;9.10;2.92;;;17.00;93.10;;;;;;4896841;29;20496;-90
2022/05/27 13:27:08;;;;;;;12.05;2.70;;;16.90;93.00;;;;;;4899174;29;20044;-88
2022/05/27 13:29:43;;;;;;;12.02;2.33;;;16.90;93.50;;;;;;4903040;29;20201;-89
2022/05/27 13:32:20;;;;;;;12.85;2.67;;;16.90;94.60;;;;;;4902795;29;20184;-88
2022/05/27 13:34:53;;;;;;;13.55;2.72;;;16.80;94.30;;;;;;4894923;29;20099;-88
2022/05/27 13:37:37;;;;;;;13.02;2.80;;;16.70;94.60;;;;;;4904918;29;20071;-89
2022/05/27 13:40:11;;;;;;;13.98;2.60;;;16.70;95.30;;;;;;4894869;29;20051;-89
2022/05/27 13:42:50;;;;;;;12.68;2.63;;;16.60;95.00;;;;;;4877966;29;20049;-89
2022/05/27 13:45:41;;;;;;;10.55;2.70;;;16.50;95.40;;;;;;4899433;29;20151;-89
2022/05/27 13:48:06;;;;;;;11.55;2.63;;;16.40;95.40;;;;;;4882723;29;20063;-89